createdAt,value
2022-09-24T00:01:28.804Z,6.80
2022-09-24T00:04:07.480Z,6.57
2022-09-24T00:06:38.862Z,6.20
2022-09-24T00:09:05.732Z,5.88
2022-09-24T00:11:33.048Z,6.10
2022-09-24T00:14:00.473Z,5.40
2022-09-24T00:16:31.463Z,6.57
2022-09-24T00:18:58.859Z,6.15
2022-09-24T00:21:28.256Z,6.07
2022-09-24T00:23:57.836Z,5.55
2022-09-24T00:26:43.350Z,6.32
2022-09-24T00:29:11.936Z,5.95
2022-09-24T00:31:38.940Z,6.28
2022-09-24T00:34:06.134Z,6.07
2022-09-24T00:36:33.301Z,6.57
2022-09-24T00:39:00.687Z,6.00
2022-09-24T00:41:30.861Z,6.32
2022-09-24T00:43:58.381Z,7.38
2022-09-24T00:46:42.904Z,6.85
2022-09-24T00:49:15.512Z,6.50
2022-09-24T00:51:45.590Z,6.63
2022-09-24T00:54:18.172Z,5.85
2022-09-24T00:56:47.033Z,6.45
2022-09-24T00:59:17.321Z,6.45
2022-09-24T01:01:48.382Z,6.50
2022-09-24T01:04:17.862Z,6.75
2022-09-24T01:06:45.245Z,6.47
2022-09-24T01:09:12.013Z,6.85
2022-09-24T01:11:51.346Z,5.97
2022-09-24T01:14:39.943Z,5.85
2022-09-24T01:17:12.512Z,5.88
2022-09-24T01:20:11.162Z,6.05
2022-09-24T01:22:40.947Z,6.25
2022-09-24T01:25:11.392Z,6.43
2022-09-24T01:27:56.620Z,6.30
2022-09-24T01:30:25.513Z,6.22
2022-09-24T01:33:01.001Z,6.38
2022-09-24T01:35:35.093Z,6.07
2022-09-24T01:38:06.583Z,6.15
2022-09-24T01:40:34.278Z,6.03
2022-09-24T01:43:05.200Z,6.80
2022-09-24T01:45:33.356Z,6.20
2022-09-24T01:48:01.079Z,6.35
2022-09-24T01:50:31.088Z,5.82
2022-09-24T01:53:06.702Z,5.57
2022-09-24T01:55:38.433Z,6.15
2022-09-24T01:58:10.576Z,6.50
2022-09-24T02:00:45.694Z,6.10
2022-09-24T02:03:20.200Z,5.93
2022-09-24T02:06:33.664Z,6.53
2022-09-24T02:09:00.353Z,5.85
2022-09-24T02:11:28.169Z,5.72
2022-09-24T02:14:13.203Z,6.10
2022-09-24T02:16:46.846Z,5.93
2022-09-24T02:19:17.422Z,6.03
2022-09-24T02:21:46.225Z,5.85
2022-09-24T02:24:29.095Z,6.38
2022-09-24T02:26:56.011Z,5.88
2022-09-24T02:29:23.240Z,6.43
2022-09-24T02:31:54.126Z,6.55
2022-09-24T02:34:27.569Z,6.95
2022-09-24T02:37:07.067Z,6.70
2022-09-24T02:39:34.217Z,6.25
2022-09-24T02:42:01.084Z,6.28
2022-09-24T02:44:28.642Z,6.30
2022-09-24T02:46:55.747Z,6.10
2022-09-24T02:49:22.541Z,6.93
2022-09-24T02:51:49.413Z,6.97
2022-09-24T02:54:16.214Z,6.55
2022-09-24T02:56:42.925Z,6.28
2022-09-24T02:59:10.188Z,7.10
2022-09-24T03:01:37.049Z,6.43
2022-09-24T03:04:04.898Z,6.25
2022-09-24T03:06:32.173Z,6.15
2022-09-24T03:08:58.971Z,5.88
2022-09-24T03:11:25.733Z,4.95
2022-09-24T03:13:52.470Z,6.28
2022-09-24T03:16:19.729Z,6.20
2022-09-24T03:18:47.736Z,6.00
2022-09-24T03:21:19.434Z,5.80
2022-09-24T03:23:46.360Z,6.22
2022-09-24T03:26:13.583Z,6.65
2022-09-24T03:28:40.769Z,7.25
2022-09-24T03:31:08.081Z,6.30
2022-09-24T03:33:46.063Z,6.57
2022-09-24T03:36:25.667Z,6.60
2022-09-24T03:38:56.506Z,6.35
2022-09-24T03:41:28.365Z,5.82
2022-09-24T03:43:55.950Z,6.80
2022-09-24T03:46:25.207Z,6.55
2022-09-24T03:48:52.220Z,6.63
2022-09-24T03:51:20.110Z,6.25
2022-09-24T03:53:47.978Z,6.85
2022-09-24T03:56:15.072Z,6.10
2022-09-24T03:58:42.063Z,6.85
2022-09-24T04:01:10.655Z,5.65
2022-09-24T04:03:38.271Z,6.07
2022-09-24T04:06:06.066Z,6.78
2022-09-24T04:08:33.111Z,5.78
2022-09-24T04:11:00.191Z,6.43
2022-09-24T04:13:27.019Z,6.38
2022-09-24T04:15:55.052Z,5.32
2022-09-24T04:18:22.060Z,6.85
2022-09-24T04:20:48.804Z,6.55
2022-09-24T04:23:15.520Z,6.38
2022-09-24T04:25:42.420Z,6.10
2022-09-24T04:28:10.130Z,5.90
2022-09-24T04:30:38.361Z,5.68
2022-09-24T04:33:06.566Z,6.22
2022-09-24T04:35:36.199Z,6.43
2022-09-24T04:38:04.806Z,6.38
2022-09-24T04:40:32.117Z,5.82
2022-09-24T04:42:59.471Z,6.03
2022-09-24T04:45:26.869Z,6.38
2022-09-24T04:47:57.515Z,6.28
2022-09-24T04:50:29.138Z,6.13
2022-09-24T04:52:56.662Z,5.55
2022-09-24T04:55:24.091Z,6.28
2022-09-24T04:57:51.281Z,5.72
2022-09-24T05:00:20.978Z,5.97
2022-09-24T05:02:55.195Z,5.47
2022-09-24T05:05:22.087Z,5.07
2022-09-24T05:07:49.570Z,4.97
2022-09-24T05:10:16.340Z,4.93
2022-09-24T05:12:43.036Z,5.15
2022-09-24T05:15:10.076Z,4.93
2022-09-24T05:17:40.414Z,4.72
2022-09-24T05:20:09.627Z,4.72
2022-09-24T05:22:37.516Z,5.40
2022-09-24T05:25:04.592Z,4.20
2022-09-24T05:27:31.300Z,4.32
2022-09-24T05:29:58.063Z,4.28
2022-09-24T05:32:25.033Z,4.25
2022-09-24T05:34:52.385Z,4.65
2022-09-24T05:37:19.608Z,3.97
2022-09-24T05:39:46.336Z,4.55
2022-09-24T05:42:16.295Z,4.18
2022-09-24T05:44:45.650Z,4.03
2022-09-24T05:47:16.372Z,3.75
2022-09-24T05:49:43.123Z,3.45
2022-09-24T05:52:10.299Z,3.95
2022-09-24T05:54:37.018Z,3.65
2022-09-24T05:57:03.953Z,3.50
2022-09-24T05:59:30.648Z,3.63
2022-09-24T06:01:57.454Z,3.63
2022-09-24T06:04:24.313Z,2.65
2022-09-24T06:06:52.262Z,3.10
2022-09-24T06:09:19.032Z,2.90
2022-09-24T06:11:46.673Z,2.78
2022-09-24T06:14:14.230Z,3.10
2022-09-24T06:16:40.951Z,2.80
2022-09-24T06:19:07.932Z,2.53
2022-09-24T06:21:34.671Z,2.50
2022-09-24T06:24:01.775Z,2.70
2022-09-24T06:26:29.121Z,2.60
2022-09-24T06:28:58.545Z,2.33
2022-09-24T06:31:28.977Z,2.50
2022-09-24T06:33:55.791Z,2.25
2022-09-24T06:36:22.540Z,2.45
2022-09-24T06:38:52.624Z,2.35
2022-09-24T06:41:19.456Z,3.08
2022-09-24T06:43:46.334Z,2.42
2022-09-24T06:46:14.380Z,2.67
2022-09-24T06:48:42.677Z,2.67
2022-09-24T06:51:09.352Z,1.90
2022-09-24T06:53:36.408Z,2.25
2022-09-24T06:56:03.702Z,2.00
2022-09-24T06:58:30.486Z,2.38
2022-09-24T07:01:00.339Z,2.50
2022-09-24T07:03:31.877Z,2.55
2022-09-24T07:06:06.310Z,2.30
2022-09-24T07:08:36.152Z,2.50
2022-09-24T07:11:02.876Z,2.08
2022-09-24T07:13:29.947Z,2.70
2022-09-24T07:15:56.785Z,2.92
2022-09-24T07:18:23.587Z,2.60
2022-09-24T07:20:56.942Z,2.28
2022-09-24T07:23:24.248Z,2.67
2022-09-24T07:25:56.011Z,2.50
2022-09-24T07:28:23.032Z,2.23
2022-09-24T07:30:57.482Z,2.20
2022-09-24T07:33:24.396Z,2.20
2022-09-24T07:35:51.189Z,2.20
2022-09-24T07:38:18.006Z,2.10
2022-09-24T07:40:44.920Z,2.10
2022-09-24T07:43:14.214Z,1.95
2022-09-24T07:45:42.448Z,1.73
2022-09-24T07:48:10.622Z,2.05
2022-09-24T07:50:42.051Z,2.33
2022-09-24T07:53:12.245Z,2.45
2022-09-24T07:55:41.078Z,2.10
2022-09-24T07:58:11.087Z,2.05
2022-09-24T08:00:38.046Z,2.10
2022-09-24T08:03:05.648Z,1.95
2022-09-24T08:05:33.210Z,1.88
2022-09-24T08:08:00.130Z,2.45
2022-09-24T08:10:28.599Z,2.20
2022-09-24T08:12:57.270Z,2.10
2022-09-24T08:15:24.075Z,1.58
2022-09-24T08:17:51.292Z,1.77
2022-09-24T08:20:18.521Z,1.80
2022-09-24T08:22:45.470Z,2.00
2022-09-24T08:25:12.219Z,1.83
2022-09-24T08:27:39.300Z,1.75
2022-09-24T08:30:07.034Z,1.65
2022-09-24T08:32:34.137Z,2.08
2022-09-24T08:35:00.925Z,1.65
2022-09-24T08:37:28.955Z,1.80
2022-09-24T08:39:56.061Z,1.60
2022-09-24T08:42:44.188Z,1.60
2022-09-24T08:45:30.095Z,1.48
2022-09-24T08:48:09.151Z,1.58
2022-09-24T08:50:39.633Z,1.67
2022-09-24T08:53:54.321Z,1.77
2022-09-24T08:56:32.341Z,1.65
2022-09-24T08:59:03.399Z,1.50
2022-09-24T09:01:44.765Z,1.70
2022-09-24T09:04:17.865Z,1.45
2022-09-24T09:06:50.674Z,1.65
2022-09-24T09:09:22.872Z,1.42
2022-09-24T09:12:03.103Z,1.30
2022-09-24T09:14:45.977Z,1.40
2022-09-24T09:20:01.186Z,1.45
2022-09-24T09:22:47.303Z,1.20
2022-09-24T09:25:24.056Z,1.20
2022-09-24T09:28:00.863Z,1.40
2022-09-24T09:30:37.314Z,1.20
2022-09-24T09:33:13.231Z,1.20
2022-09-24T09:36:03.344Z,1.00
2022-09-24T09:38:37.980Z,0.98
2022-09-24T09:41:29.225Z,1.20
2022-09-24T09:44:20.697Z,1.00
2022-09-24T09:47:06.992Z,1.00
2022-09-24T09:49:36.514Z,1.42
2022-09-24T09:52:10.919Z,1.70
2022-09-24T09:54:39.161Z,1.23
2022-09-24T09:57:06.881Z,1.15
2022-09-24T09:59:35.607Z,1.33
2022-09-24T10:02:02.754Z,1.00
2022-09-24T10:04:39.752Z,1.60
2022-09-24T10:07:17.681Z,1.30
2022-09-24T10:09:46.887Z,1.33
2022-09-24T10:12:22.321Z,1.08
2022-09-24T10:15:16.123Z,1.00
2022-09-24T11:35:36.074Z,1.05
2022-09-24T11:38:10.060Z,1.08
2022-09-24T11:41:13.638Z,1.10
2022-09-24T11:43:55.399Z,1.10
2022-09-24T11:46:38.839Z,2.22
2022-09-24T11:49:28.478Z,1.67
2022-09-24T11:52:26.176Z,1.48
2022-09-24T11:55:01.202Z,1.40
2022-09-24T11:57:39.647Z,1.23
2022-09-24T12:00:13.863Z,0.63
2022-09-24T12:02:47.849Z,0.63
2022-09-24T12:05:31.452Z,0.93
2022-09-24T12:08:05.025Z,1.02
2022-09-24T12:10:43.535Z,1.00
2022-09-24T12:13:20.923Z,0.90
2022-09-24T12:15:54.900Z,0.85
2022-09-24T12:18:27.798Z,0.95
2022-09-24T12:21:01.931Z,0.90
2022-09-24T12:23:39.220Z,1.00
2022-09-24T12:26:07.900Z,1.23
2022-09-24T12:29:39.894Z,1.27
2022-09-24T12:32:40.769Z,1.92
2022-09-24T12:35:23.792Z,0.88
2022-09-24T12:37:58.201Z,0.80
2022-09-24T12:40:49.873Z,0.57
2022-09-24T12:43:44.670Z,0.60
2022-09-24T12:46:44.516Z,0.50
2022-09-24T12:49:52.445Z,0.70
2022-09-24T12:52:32.392Z,1.00
2022-09-24T12:55:02.405Z,2.08
2022-09-24T12:57:42.590Z,1.30
2022-09-24T13:00:37.018Z,0.90
2022-09-24T13:03:05.709Z,0.98
2022-09-24T13:05:45.343Z,0.55
2022-09-24T13:08:17.969Z,0.43
2022-09-24T13:11:05.785Z,0.60
2022-09-24T13:13:40.949Z,1.00
2022-09-24T13:16:16.263Z,0.80
2022-09-24T13:18:44.163Z,0.70
2022-09-24T13:21:22.720Z,0.68
2022-09-24T13:23:50.261Z,0.80
2022-09-24T13:26:29.227Z,0.73
2022-09-24T13:29:24.431Z,0.80
2022-09-24T13:31:57.251Z,0.80
2022-09-24T13:37:02.162Z,0.80
2022-09-24T13:39:46.607Z,0.80
2022-09-24T13:42:13.289Z,0.70
2022-09-24T13:44:43.787Z,0.82
2022-09-24T13:47:19.717Z,1.17
2022-09-24T13:49:50.301Z,1.02
2022-09-24T13:52:30.560Z,1.23
2022-09-24T13:55:02.166Z,1.00
2022-09-24T13:57:29.629Z,0.90
2022-09-24T14:00:13.067Z,1.10
2022-09-24T14:02:40.268Z,1.17
2022-09-24T14:05:17.445Z,0.95
2022-09-24T14:08:13.234Z,1.00
2022-09-24T14:10:40.317Z,1.02
2022-09-24T14:13:12.991Z,1.10
2022-09-24T14:18:16.507Z,1.23
2022-09-24T14:20:45.062Z,0.90
2022-09-24T14:23:22.415Z,0.80
2022-09-24T14:25:51.581Z,0.60
2022-09-24T14:28:20.112Z,1.00
2022-09-24T14:30:53.902Z,0.82
2022-09-24T14:33:25.998Z,0.80
2022-09-24T14:35:55.979Z,1.20
2022-09-24T14:38:26.600Z,1.70
2022-09-24T14:41:06.371Z,1.58
2022-09-24T14:43:49.710Z,2.20
2022-09-24T14:46:19.983Z,1.08
2022-09-24T14:48:47.033Z,1.30
2022-09-24T14:51:30.584Z,0.65
2022-09-24T14:54:19.323Z,1.00
2022-09-24T14:56:46.087Z,0.70
2022-09-24T14:59:17.895Z,0.73
2022-09-24T15:01:44.952Z,1.00
2022-09-24T15:04:20.877Z,0.98
2022-09-24T15:06:48.390Z,0.90
2022-09-24T15:09:31.846Z,0.98
2022-09-24T15:12:09.115Z,1.42
2022-09-24T15:14:36.839Z,1.48
2022-09-24T15:17:20.860Z,1.30
2022-09-24T15:19:47.956Z,1.13
2022-09-24T15:22:14.972Z,1.60
2022-09-24T15:24:41.870Z,1.60
2022-09-24T15:27:27.273Z,1.73
2022-09-24T15:29:59.468Z,1.27
2022-09-24T15:32:28.792Z,1.40
2022-09-24T15:34:56.666Z,1.20
2022-09-24T15:37:27.442Z,1.00
2022-09-24T15:39:58.556Z,1.45
2022-09-24T15:42:27.025Z,2.95
2022-09-24T15:44:54.747Z,3.03
2022-09-24T15:47:21.587Z,1.20
2022-09-24T15:49:48.390Z,1.20
2022-09-24T15:52:24.500Z,1.33
2022-09-24T15:54:52.753Z,1.52
2022-09-24T15:57:19.562Z,1.35
2022-09-24T15:59:46.443Z,1.33
2022-09-24T16:02:29.225Z,1.48
2022-09-24T16:05:00.249Z,1.80
2022-09-24T16:07:30.264Z,1.70
2022-09-24T16:09:57.018Z,1.42
2022-09-24T16:12:28.085Z,1.33
2022-09-24T16:14:58.998Z,1.58
2022-09-24T16:17:26.828Z,1.17
2022-09-24T16:19:53.721Z,1.10
2022-09-24T16:22:20.924Z,1.23
2022-09-24T16:24:48.236Z,0.90
2022-09-24T16:27:15.196Z,1.10
2022-09-24T16:29:42.078Z,1.10
2022-09-24T16:32:08.901Z,1.30
2022-09-24T16:34:35.784Z,1.10
2022-09-24T16:37:02.617Z,1.20
2022-09-24T16:39:29.831Z,1.60
2022-09-24T16:41:56.722Z,1.83
2022-09-24T16:44:23.554Z,1.60
2022-09-24T16:46:51.128Z,1.60
2022-09-24T16:49:18.396Z,1.65
2022-09-24T16:51:45.359Z,1.63
2022-09-24T16:54:13.761Z,1.75
2022-09-24T16:56:40.664Z,1.35
2022-09-24T16:59:07.513Z,1.33
2022-09-24T17:01:34.417Z,1.10
2022-09-24T17:04:01.530Z,1.00
2022-09-24T17:06:31.254Z,1.48
2022-09-24T17:09:16.749Z,1.40
2022-09-24T17:11:45.675Z,1.77
2022-09-24T17:14:12.746Z,1.48
2022-09-24T17:16:40.104Z,1.63
2022-09-24T17:19:08.272Z,1.45
2022-09-24T17:21:36.658Z,1.65
2022-09-24T17:24:04.183Z,2.20
2022-09-24T17:26:30.968Z,2.53
2022-09-24T17:28:57.730Z,2.85
2022-09-24T17:31:26.071Z,2.80
2022-09-24T17:34:04.744Z,3.65
2022-09-24T17:36:33.962Z,3.85
2022-09-24T17:39:01.428Z,3.70
2022-09-24T17:41:29.977Z,3.22
2022-09-24T17:44:00.506Z,2.88
2022-09-24T17:46:29.978Z,2.05
2022-09-24T17:48:58.794Z,1.88
2022-09-24T17:51:28.325Z,1.70
2022-09-24T17:53:55.908Z,1.60
2022-09-24T17:56:25.325Z,1.73
2022-09-24T17:58:54.483Z,1.45
2022-09-24T18:01:25.429Z,1.70
2022-09-24T18:03:54.423Z,1.60
2022-09-24T18:06:21.472Z,1.95
2022-09-24T18:08:48.326Z,1.70
2022-09-24T18:11:23.853Z,1.50
2022-09-24T18:13:55.841Z,1.85
2022-09-24T18:16:25.067Z,1.80
2022-09-24T18:18:52.410Z,1.77
2022-09-24T18:21:22.052Z,1.98
2022-09-24T18:23:49.069Z,1.77
2022-09-24T18:26:23.845Z,1.90
2022-09-24T18:28:53.529Z,1.98
2022-09-24T18:31:23.162Z,2.03
2022-09-24T18:33:51.900Z,1.90
2022-09-24T18:36:21.452Z,1.80
2022-09-24T18:41:29.742Z,1.90
2022-09-24T18:43:59.161Z,2.15
2022-09-24T18:46:28.343Z,1.95
2022-09-24T18:48:56.364Z,1.75
2022-09-24T18:51:26.300Z,2.10
2022-09-24T18:53:56.499Z,2.17
2022-09-24T18:56:24.898Z,2.22
2022-09-24T18:58:56.265Z,2.00
2022-09-24T19:01:23.652Z,1.88
2022-09-24T19:03:50.819Z,2.03
2022-09-24T19:06:17.813Z,1.88
2022-09-24T19:08:44.749Z,2.00
2022-09-24T19:11:14.210Z,1.80
2022-09-24T19:13:42.990Z,1.90
2022-09-24T19:16:12.974Z,2.03
2022-09-24T19:18:40.890Z,1.85
2022-09-24T19:21:10.100Z,1.80
2022-09-24T19:23:42.104Z,2.00
2022-09-24T19:26:10.717Z,2.00
2022-09-24T19:28:41.086Z,1.98
2022-09-24T19:31:16.965Z,1.90
2022-09-24T19:33:46.370Z,2.08
2022-09-24T19:36:13.395Z,1.92
2022-09-24T19:38:41.916Z,2.10
2022-09-24T19:41:10.609Z,1.80
2022-09-24T19:43:37.635Z,1.63
2022-09-24T19:46:07.734Z,1.77
2022-09-24T19:48:39.949Z,1.70
2022-09-24T19:51:12.365Z,2.20
2022-09-24T19:53:39.270Z,1.90
2022-09-24T19:56:07.670Z,2.17
2022-09-24T19:58:35.172Z,2.28
2022-09-24T20:01:03.978Z,2.17
2022-09-24T20:03:38.243Z,2.38
2022-09-24T20:06:20.129Z,2.08
2022-09-24T20:08:47.383Z,2.28
2022-09-24T20:11:20.978Z,2.20
2022-09-24T20:13:53.121Z,1.98
2022-09-24T20:16:22.969Z,1.95
2022-09-24T20:18:51.369Z,1.95
2022-09-24T20:21:19.184Z,2.28
2022-09-24T20:23:47.601Z,2.10
2022-09-24T20:26:35.417Z,2.03
2022-09-24T20:29:03.155Z,2.15
2022-09-24T20:31:30.307Z,2.13
2022-09-24T20:33:57.423Z,2.80
2022-09-24T20:36:25.323Z,2.35
2022-09-24T20:38:52.816Z,2.35
2022-09-24T20:41:22.747Z,2.38
2022-09-24T20:43:50.425Z,2.20
2022-09-24T20:46:18.483Z,2.13
2022-09-24T20:48:45.433Z,2.08
2022-09-24T20:51:14.680Z,2.50
2022-09-24T20:53:41.938Z,2.78
2022-09-24T20:56:09.314Z,2.10
2022-09-24T20:58:37.230Z,2.35
2022-09-24T21:01:04.791Z,2.47
2022-09-24T21:03:46.608Z,2.70
2022-09-24T21:06:15.089Z,2.28
2022-09-24T21:08:43.643Z,2.72
2022-09-24T21:11:13.879Z,2.22
2022-09-24T21:13:44.060Z,2.60
2022-09-24T21:16:11.921Z,2.45
2022-09-24T21:18:41.008Z,2.67
2022-09-24T21:21:23.574Z,2.40
2022-09-24T21:23:52.843Z,2.50
2022-09-24T21:26:24.023Z,2.40
2022-09-24T21:28:53.842Z,2.60
2022-09-24T21:31:24.025Z,2.70
2022-09-24T21:33:54.905Z,2.35
2022-09-24T21:36:24.286Z,2.30
2022-09-24T21:38:54.516Z,2.55
2022-09-24T21:41:32.510Z,1.88
2022-09-24T21:44:00.037Z,3.00
2022-09-24T21:46:28.131Z,2.05
2022-09-24T21:48:55.883Z,2.22
2022-09-24T21:51:23.427Z,2.10
2022-09-24T21:53:56.709Z,2.40
2022-09-24T21:56:24.915Z,2.50
2022-09-24T21:58:53.423Z,2.08
2022-09-24T22:01:46.457Z,2.33
2022-09-24T22:04:13.183Z,2.13
2022-09-24T22:06:39.910Z,2.60
2022-09-24T22:09:07.144Z,2.22
2022-09-24T22:11:34.549Z,2.47
2022-09-24T22:14:02.534Z,2.53
2022-09-24T22:16:31.077Z,2.38
2022-09-24T22:18:58.413Z,2.55
2022-09-24T22:21:25.279Z,2.40
2022-09-24T22:23:52.087Z,2.17
2022-09-24T22:26:18.858Z,2.22
2022-09-24T22:28:46.068Z,2.30
2022-09-24T22:31:15.545Z,2.33
2022-09-24T22:34:01.308Z,2.50
2022-09-24T22:36:30.083Z,2.88
2022-09-24T22:38:59.420Z,2.30
2022-09-24T22:41:30.688Z,2.05
2022-09-24T22:43:58.375Z,2.47
2022-09-24T22:46:27.263Z,2.22
2022-09-24T22:48:55.235Z,2.80
2022-09-24T22:51:23.320Z,2.53
2022-09-24T22:53:50.205Z,2.53
2022-09-24T22:56:19.511Z,2.65
2022-09-24T22:58:55.073Z,2.90
2022-09-24T23:01:27.278Z,2.58
2022-09-24T23:03:55.943Z,2.45
2022-09-24T23:06:23.672Z,2.50
2022-09-24T23:08:52.285Z,2.33
2022-09-24T23:11:25.486Z,2.25
2022-09-24T23:13:58.835Z,3.03
2022-09-24T23:16:31.493Z,2.50
2022-09-24T23:21:28.468Z,2.05
2022-09-24T23:23:57.945Z,2.70
2022-09-24T23:26:25.635Z,2.33
2022-09-24T23:28:54.348Z,2.70
2022-09-24T23:31:25.373Z,2.65
2022-09-24T23:33:54.626Z,2.63
2022-09-24T23:36:21.734Z,2.45
2022-09-24T23:38:48.676Z,2.95
2022-09-24T23:41:15.720Z,2.42
2022-09-24T23:43:42.753Z,2.65
2022-09-24T23:46:10.727Z,2.90
2022-09-24T23:48:38.182Z,3.08
2022-09-24T23:51:05.788Z,2.80
2022-09-24T23:53:34.176Z,3.28
2022-09-24T23:56:02.389Z,2.88
2022-09-24T23:58:29.911Z,2.47
